Time;durP1;ratioP1;P1;durP2;ratioP2;P2;SDS_P1;SDS_P2;PMS_P1;PMS_P2;Temp;Humidity;BMP_temperature;BMP_pressure;BME280_temperature;BME280_humidity;BME280_pressure;Samples;Min_cycle;Max_cycle;Signal;HPM_P1;HPM_P2
2022/01/23 00:01:34;;;;;;;12.05;7.38;;;6.80;94.70;;;;;;5043784;28;20052;-84
2022/01/23 00:04:01;;;;;;;13.68;7.28;;;6.80;94.70;;;;;;5042292;28;20045;-84
2022/01/23 00:06:28;;;;;;;13.68;8.00;;;6.80;94.70;;;;;;5042328;28;20048;-85
2022/01/23 00:08:56;;;;;;;14.23;7.97;;;6.80;94.70;;;;;;5042300;28;20516;-84
2022/01/23 00:11:26;;;;;;;13.18;7.30;;;6.80;94.70;;;;;;5025795;28;20088;-85
2022/01/23 00:19:12;;;;;;;12.40;6.65;;;6.80;94.80;;;;;;5058648;28;20144;-85
2022/01/23 00:21:41;;;;;;;11.65;5.93;;;6.80;94.80;;;;;;5041870;28;20045;-85
2022/01/23 00:32:09;;;;;;;12.68;7.25;;;6.80;94.80;;;;;;5058628;28;20122;-85
2022/01/23 00:34:37;;;;;;;11.50;6.53;;;6.80;94.80;;;;;;5042043;28;20568;-84
2022/01/23 00:37:05;;;;;;;14.43;7.60;;;6.80;94.80;;;;;;5023157;28;20041;-84
2022/01/23 00:39:32;;;;;;;17.00;8.48;;;6.80;94.80;;;;;;5039170;28;20037;-85
2022/01/23 00:41:59;;;;;;;15.93;8.82;;;6.80;94.80;;;;;;5022686;28;20041;-84
2022/01/23 00:44:27;;;;;;;15.93;8.40;;;6.80;94.80;;;;;;5038810;28;20041;-84
2022/01/23 00:46:54;;;;;;;13.48;6.93;;;6.80;94.80;;;;;;5038417;28;20118;-84
2022/01/23 00:51:52;;;;;;;11.55;5.97;;;6.80;94.80;;;;;;5038820;28;20070;-85
2022/01/23 00:54:19;;;;;;;12.05;6.82;;;6.80;94.90;;;;;;5038490;28;20052;-84
2022/01/23 00:56:46;;;;;;;12.02;7.05;;;6.80;94.90;;;;;;5038490;28;20447;-85
2022/01/23 00:59:13;;;;;;;13.35;6.82;;;6.70;94.90;;;;;;5038261;28;20053;-85
2022/01/23 01:01:40;;;;;;;11.38;5.68;;;6.80;94.90;;;;;;5038386;28;20103;-85
2022/01/23 01:04:08;;;;;;;10.13;5.45;;;6.80;94.90;;;;;;5054430;28;20045;-85
2022/01/23 01:06:35;;;;;;;9.50;4.85;;;6.80;94.90;;;;;;5037425;28;20045;-85
2022/01/23 01:09:06;;;;;;;11.40;5.82;;;6.80;94.90;;;;;;5021424;28;20052;-84
2022/01/23 01:14:28;;;;;;;11.02;5.47;;;6.80;94.80;;;;;;5053780;28;20102;-84
2022/01/23 01:31:33;;;;;;;7.97;4.13;;;6.80;94.90;;;;;;5057433;28;20051;-84
2022/01/23 01:36:34;;;;;;;8.43;4.18;;;6.80;94.90;;;;;;5057629;28;20036;-84
2022/01/23 01:39:06;;;;;;;11.63;5.10;;;6.80;94.90;;;;;;5027468;28;20036;-84
2022/01/23 01:41:38;;;;;;;10.80;5.88;;;6.80;94.90;;;;;;5057323;28;20090;-84
2022/01/23 01:44:06;;;;;;;;;;;6.80;94.90;;;;;;5041274;28;20091;-84
2022/01/23 01:47:07;;;;;;;14.20;8.43;;;6.70;94.80;;;;;;5054757;28;19997;-85
2022/01/23 01:49:39;;;;;;;17.25;9.10;;;6.70;94.90;;;;;;5040540;28;20051;-85
2022/01/23 01:52:08;;;;;;;17.45;10.30;;;6.60;94.80;;;;;;5039743;28;20071;-84
2022/01/23 01:54:35;;;;;;;18.25;10.43;;;6.60;94.90;;;;;;5074106;28;20404;-84
2022/01/23 01:57:11;;;;;;;18.77;9.63;;;6.60;94.90;;;;;;5056193;28;20040;-84
2022/01/23 02:00:11;;;;;;;13.90;7.85;;;6.60;94.90;;;;;;5027236;28;20040;-84
2022/01/23 02:08:24;;;;;;;15.02;7.82;;;6.60;95.00;;;;;;5074477;28;20039;-84
2022/01/23 02:10:57;;;;;;;15.57;9.13;;;6.60;95.00;;;;;;5043792;28;20499;-84
2022/01/23 02:13:34;;;;;;;14.15;7.82;;;6.60;95.00;;;;;;5040293;28;20139;-84
2022/01/23 02:16:31;;;;;;;16.45;9.00;;;6.60;95.00;;;;;;5040284;28;20072;-85
2022/01/23 02:25:15;;;;;;;11.13;6.32;;;6.50;95.20;;;;;;5045759;28;20045;-85
2022/01/23 02:55:24;;;;;;;15.68;8.23;;;6.50;95.20;;;;;;5042235;28;20131;-85
2022/01/23 02:57:59;;;;;;;16.70;8.82;;;6.50;95.20;;;;;;5025725;28;20506;-84
2022/01/23 03:00:35;;;;;;;15.10;8.40;;;6.60;95.20;;;;;;5024221;28;20051;-85
2022/01/23 03:03:12;;;;;;;18.98;10.88;;;6.50;95.20;;;;;;5040580;28;20047;-85
2022/01/23 03:09:09;;;;;;;16.70;9.43;;;6.60;95.10;;;;;;5055940;28;20041;-85
2022/01/23 03:25:37;;;;;;;12.82;7.22;;;6.60;95.20;;;;;;5041810;28;20044;-85
2022/01/23 03:28:18;;;;;;;10.98;5.93;;;6.60;95.20;;;;;;5059058;28;20049;-85
2022/01/23 03:31:31;;;;;;;14.00;6.93;;;6.60;95.20;;;;;;5042187;28;20045;-85
2022/01/23 03:33:39;;;;;;;12.65;6.32;;;6.60;95.10;;;;;;5047710;28;20052;-84
2022/01/23 03:36:06;;;;;;;11.93;6.15;;;6.70;95.20;;;;;;5038754;28;20056;-85
2022/01/23 03:38:33;;;;;;;12.63;6.22;;;6.60;95.10;;;;;;5039182;28;20048;-85
2022/01/23 03:41:00;;;;;;;11.35;5.55;;;6.70;95.20;;;;;;5039167;28;20508;-85
2022/01/23 03:43:31;;;;;;;9.38;4.50;;;6.70;95.20;;;;;;5038996;28;20041;-84
2022/01/23 03:46:46;;;;;;;11.93;5.15;;;6.70;95.20;;;;;;5039962;28;20045;-85
2022/01/23 03:52:22;;;;;;;9.23;4.95;;;6.70;95.20;;;;;;5053759;28;20045;-85
2022/01/23 03:54:49;;;;;;;9.02;4.57;;;6.80;95.20;;;;;;5039228;28;20048;-85
2022/01/23 03:57:16;;;;;;;8.20;3.80;;;6.80;95.40;;;;;;5038780;28;20431;-86
2022/01/23 03:59:43;;;;;;;9.88;5.15;;;6.80;95.10;;;;;;5039208;28;20044;-85
2022/01/23 04:02:10;;;;;;;9.88;4.72;;;6.80;95.10;;;;;;5038931;28;20051;-85
2022/01/23 04:04:40;;;;;;;9.25;4.25;;;6.80;95.10;;;;;;5039252;28;20079;-85
2022/01/23 04:07:21;;;;;;;9.85;5.40;;;6.80;95.10;;;;;;5039737;28;20050;-85
2022/01/23 04:09:49;;;;;;;9.90;5.22;;;6.80;95.10;;;;;;5038847;28;20049;-85
2022/01/23 04:12:34;;;;;;;8.00;4.45;;;6.80;95.10;;;;;;5041319;28;20055;-85
2022/01/23 04:20:32;;;;;;;9.15;5.10;;;6.80;95.10;;;;;;5042821;28;20409;-85
2022/01/23 04:34:27;;;;;;;7.47;4.10;;;6.80;95.10;;;;;;5058750;28;20052;-85
2022/01/23 04:45:22;;;;;;;8.55;3.75;;;6.70;95.10;;;;;;5044449;28;20048;-85
2022/01/23 05:01:42;;;;;;;5.50;2.53;;;6.70;95.30;;;;;;5057926;28;20045;-85
2022/01/23 05:04:34;;;;;;;6.28;3.25;;;6.70;95.30;;;;;;5044545;28;20052;-85
2022/01/23 05:07:13;;;;;;;7.80;4.18;;;6.70;95.30;;;;;;5028804;28;20117;-85
2022/01/23 05:09:59;;;;;;;6.93;3.60;;;6.70;95.30;;;;;;5061389;28;20051;-85
2022/01/23 05:12:47;;;;;;;5.72;3.15;;;6.70;95.20;;;;;;5041536;28;20041;-85
2022/01/23 05:15:15;;;;;;;6.68;3.38;;;6.70;95.20;;;;;;5041030;28;20040;-85
2022/01/23 05:17:43;;;;;;;6.15;3.10;;;6.70;95.20;;;;;;5041580;28;20044;-85
2022/01/23 05:20:13;;;;;;;5.82;2.63;;;6.70;95.20;;;;;;5008913;28;20127;-84
2022/01/23 05:22:52;;;;;;;6.85;2.65;;;6.70;95.30;;;;;;5025324;28;20094;-84
2022/01/23 05:25:26;;;;;;;5.88;2.60;;;6.70;95.30;;;;;;5026273;28;20056;-85
2022/01/23 05:27:54;;;;;;;4.57;2.08;;;6.70;95.60;;;;;;5042002;28;20445;-85
2022/01/23 05:30:23;;;;;;;5.63;2.60;;;6.70;95.30;;;;;;5037483;28;20474;-85
2022/01/23 05:32:51;;;;;;;4.75;2.42;;;6.80;95.30;;;;;;5037900;28;20049;-85
2022/01/23 05:35:23;;;;;;;4.57;2.13;;;6.70;95.30;;;;;;5037750;28;20114;-85
2022/01/23 05:37:52;;;;;;;3.15;1.30;;;6.70;95.30;;;;;;5022888;28;20045;-85
2022/01/23 05:40:24;;;;;;;4.10;1.50;;;6.70;95.30;;;;;;5022164;28;20488;-85
2022/01/23 05:42:53;;;;;;;4.15;1.67;;;6.70;95.40;;;;;;5037763;28;20049;-83
2022/01/23 05:45:21;;;;;;;3.75;1.70;;;6.80;95.40;;;;;;5004812;28;20068;-84
2022/01/23 05:48:20;;;;;;;4.10;1.77;;;6.70;95.30;;;;;;5008535;28;20053;-85
2022/01/23 05:50:48;;;;;;;4.35;1.73;;;6.70;95.30;;;;;;5054028;28;20053;-84
2022/01/23 05:53:34;;;;;;;3.53;1.48;;;6.70;95.40;;;;;;5054259;28;20044;-85
2022/01/23 05:56:10;;;;;;;3.45;1.27;;;6.60;95.40;;;;;;5039053;28;20132;-85
2022/01/23 05:58:49;;;;;;;2.85;1.05;;;6.60;95.40;;;;;;5039120;28;20095;-84
2022/01/23 06:01:18;;;;;;;4.03;1.38;;;6.70;95.40;;;;;;5021497;28;20045;-84
2022/01/23 06:03:47;;;;;;;3.40;1.10;;;6.70;95.40;;;;;;5021420;28;20041;-84
2022/01/23 06:06:18;;;;;;;4.65;1.40;;;6.70;95.40;;;;;;5006199;28;20132;-84
2022/01/23 06:08:46;;;;;;;3.45;1.17;;;6.70;95.40;;;;;;5036561;28;20354;-84
2022/01/23 06:11:14;;;;;;;3.75;1.20;;;6.60;95.30;;;;;;5037151;28;20065;-84
2022/01/23 06:13:41;;;;;;;3.53;1.52;;;6.70;95.40;;;;;;5036746;28;20535;-84
2022/01/23 06:16:11;;;;;;;3.25;1.30;;;6.70;95.30;;;;;;5037057;28;20041;-84
2022/01/23 06:18:41;;;;;;;2.85;0.93;;;6.70;95.30;;;;;;5020849;28;20044;-84
2022/01/23 06:21:46;;;;;;;3.58;1.50;;;6.70;95.30;;;;;;5004111;28;20046;-85
2022/01/23 06:24:50;;;;;;;3.00;1.20;;;6.70;95.30;;;;;;4984738;28;20548;-84
2022/01/23 06:27:28;;;;;;;2.90;1.23;;;6.70;95.30;;;;;;5042022;28;20053;-84
2022/01/23 06:29:56;;;;;;;2.42;1.08;;;6.70;95.30;;;;;;5020322;28;20059;-86
2022/01/23 06:32:24;;;;;;;3.33;1.23;;;6.70;95.30;;;;;;5036707;28;20047;-87
2022/01/23 06:34:51;;;;;;;2.42;1.13;;;6.70;95.30;;;;;;5036354;28;20045;-85
2022/01/23 06:37:21;;;;;;;2.88;1.48;;;6.70;95.30;;;;;;5020544;28;20087;-84
2022/01/23 06:39:48;;;;;;;2.47;1.02;;;6.70;95.30;;;;;;5020228;28;20064;-83
2022/01/23 06:42:25;;;;;;;3.00;1.25;;;6.70;95.30;;;;;;5052405;28;20390;-86
2022/01/23 06:45:31;;;;;;;3.78;1.50;;;6.70;95.30;;;;;;5024891;28;20041;-84
2022/01/23 06:47:58;;;;;;;3.58;1.27;;;6.70;95.20;;;;;;5036454;28;20065;-85
2022/01/23 06:50:25;;;;;;;3.17;1.40;;;6.70;95.20;;;;;;5020533;28;20041;-85
2022/01/23 06:52:52;;;;;;;2.03;0.80;;;6.70;95.30;;;;;;5004353;28;20075;-85
2022/01/23 06:55:22;;;;;;;3.20;1.00;;;6.70;95.30;;;;;;5036299;28;20090;-86
2022/01/23 06:57:52;;;;;;;2.80;1.08;;;6.70;95.30;;;;;;5036901;28;20063;-86
2022/01/23 07:00:19;;;;;;;2.13;1.00;;;6.80;95.30;;;;;;5036424;28;20054;-84
2022/01/23 07:02:59;;;;;;;2.10;0.75;;;6.80;95.30;;;;;;5053046;28;20069;-85
2022/01/23 07:05:45;;;;;;;2.97;1.17;;;6.70;95.30;;;;;;5053101;28;20539;-85
2022/01/23 07:08:18;;;;;;;3.90;1.50;;;6.70;95.20;;;;;;5020630;28;20509;-84
2022/01/23 07:11:14;;;;;;;2.80;1.10;;;6.70;95.20;;;;;;5024725;28;20463;-85
2022/01/23 07:14:07;;;;;;;2.10;0.70;;;6.70;95.30;;;;;;5044623;28;20524;-86
2022/01/23 07:16:54;;;;;;;3.05;0.85;;;6.70;95.30;;;;;;5038519;28;20057;-84
2022/01/23 07:19:36;;;;;;;2.80;1.07;;;6.80;95.30;;;;;;5009710;28;20523;-84
2022/01/23 07:22:05;;;;;;;2.67;1.02;;;6.70;95.20;;;;;;5003722;28;20835;-84
2022/01/23 07:24:33;;;;;;;2.55;1.17;;;6.70;95.20;;;;;;5020091;28;20504;-85
2022/01/23 07:27:07;;;;;;;2.45;0.90;;;6.70;95.40;;;;;;5019547;28;20041;-85
2022/01/23 07:29:34;;;;;;;3.30;1.40;;;6.70;95.20;;;;;;5020520;28;20041;-86
2022/01/23 07:32:07;;;;;;;3.53;1.30;;;6.70;95.20;;;;;;5003583;28;20041;-84
2022/01/23 07:34:37;;;;;;;2.80;0.95;;;6.80;95.30;;;;;;5005354;28;20045;-84
2022/01/23 07:37:06;;;;;;;2.00;0.90;;;6.80;95.30;;;;;;5020211;28;20041;-87
2022/01/23 07:39:39;;;;;;;;;;;6.80;95.30;;;;;;5053516;28;20041;-85
2022/01/23 07:42:13;;;;;;;1.92;0.68;;;6.80;95.30;;;;;;5052234;28;19928;-87
2022/01/23 07:45:04;;;;;;;2.08;0.73;;;6.80;95.30;;;;;;5041096;28;20045;-83
2022/01/23 07:48:10;;;;;;;1.85;0.80;;;6.80;95.30;;;;;;4986108;28;20055;-84
2022/01/23 07:51:00;;;;;;;2.13;0.70;;;6.80;95.30;;;;;;4959620;28;20076;-84
2022/01/23 07:53:52;;;;;;;1.70;0.63;;;6.80;95.30;;;;;;5019269;28;20129;-84
2022/01/23 07:56:54;;;;;;;1.73;0.70;;;6.80;95.30;;;;;;5018090;28;20777;-84
2022/01/23 07:59:36;;;;;;;1.95;0.80;;;6.80;95.30;;;;;;5022133;28;20381;-84
2022/01/23 08:02:22;;;;;;;1.65;0.88;;;6.90;95.30;;;;;;5036061;28;20184;-84
2022/01/23 08:05:10;;;;;;;2.78;1.17;;;6.90;95.30;;;;;;5036029;28;20092;-83
2022/01/23 08:07:45;;;;;;;2.22;0.80;;;6.90;95.30;;;;;;5020078;28;20506;-83
2022/01/23 08:10:33;;;;;;;2.15;0.80;;;6.90;95.30;;;;;;5021895;28;20045;-83
2022/01/23 08:13:03;;;;;;;2.45;0.90;;;6.90;95.30;;;;;;5034912;28;20095;-84
2022/01/23 08:15:31;;;;;;;2.17;0.85;;;6.90;95.30;;;;;;5035243;28;20041;-84
2022/01/23 08:18:04;;;;;;;2.35;0.82;;;6.90;95.30;;;;;;5035161;28;20068;-87
2022/01/23 08:20:33;;;;;;;;;;;6.90;95.20;;;;;;5054852;28;20140;-87
2022/01/23 08:23:04;;;;;;;2.92;0.90;;;7.00;95.20;;;;;;5055459;28;19921;-87
2022/01/23 08:25:32;;;;;;;2.50;0.98;;;6.90;95.20;;;;;;5039119;28;20095;-86
2022/01/23 08:28:01;;;;;;;2.60;0.90;;;6.90;95.20;;;;;;5022681;28;20481;-86
2022/01/23 08:30:28;;;;;;;3.13;1.02;;;7.00;95.20;;;;;;5023094;28;20060;-87
2022/01/23 08:32:56;;;;;;;4.13;1.20;;;7.00;95.20;;;;;;5023124;28;20056;-87
2022/01/23 08:35:23;;;;;;;2.40;0.80;;;7.00;95.20;;;;;;5022682;28;20443;-87
2022/01/23 08:37:52;;;;;;;2.60;1.10;;;7.10;95.20;;;;;;5022155;28;20443;-85
2022/01/23 08:40:23;;;;;;;3.40;1.17;;;7.10;95.20;;;;;;5038398;28;20099;-87
2022/01/23 08:42:52;;;;;;;2.80;1.15;;;7.10;95.20;;;;;;5055312;28;20045;-87
2022/01/23 08:45:20;;;;;;;3.35;1.40;;;7.10;95.10;;;;;;5022639;28;20519;-87
2022/01/23 08:47:51;;;;;;;2.72;1.40;;;7.10;95.10;;;;;;5038713;28;20055;-87
2022/01/23 08:50:18;;;;;;;3.55;1.60;;;7.10;95.10;;;;;;5022158;28;20111;-86
2022/01/23 08:52:45;;;;;;;2.38;1.13;;;7.10;95.10;;;;;;5038525;28;20049;-87
2022/01/23 08:55:12;;;;;;;2.50;1.15;;;7.10;95.10;;;;;;5022066;28;20493;-87
2022/01/23 08:57:39;;;;;;;3.58;1.45;;;7.20;95.10;;;;;;5021653;28;20052;-87
2022/01/23 09:00:25;;;;;;;2.42;0.90;;;7.20;95.10;;;;;;5041827;28;20548;-87
2022/01/23 09:02:52;;;;;;;2.78;1.02;;;7.20;95.10;;;;;;5022227;28;20037;-87
2022/01/23 09:05:20;;;;;;;3.22;1.40;;;7.20;95.10;;;;;;5022201;28;20095;-87
2022/01/23 09:07:47;;;;;;;3.15;1.10;;;7.30;95.10;;;;;;5006226;28;20052;-87
2022/01/23 09:10:17;;;;;;;4.13;1.23;;;7.30;95.10;;;;;;5038404;28;20045;-88
2022/01/23 09:12:58;;;;;;;3.45;1.70;;;7.30;95.10;;;;;;5022369;28;20049;-88
2022/01/23 09:15:25;;;;;;;3.65;1.38;;;7.30;95.10;;;;;;5041116;28;20099;-87
2022/01/23 09:17:52;;;;;;;2.85;0.98;;;7.30;95.10;;;;;;5005790;28;20044;-88
2022/01/23 09:20:19;;;;;;;2.67;1.40;;;7.30;95.10;;;;;;5022712;28;20040;-88
2022/01/23 09:22:46;;;;;;;2.38;0.93;;;7.30;95.10;;;;;;5022029;28;20484;-88
2022/01/23 09:25:16;;;;;;;1.88;0.82;;;7.40;95.10;;;;;;5022709;28;20045;-89
2022/01/23 09:27:43;;;;;;;2.00;0.80;;;7.40;95.00;;;;;;5021995;28;20103;-89
2022/01/23 09:30:18;;;;;;;2.20;1.20;;;7.40;95.00;;;;;;5021735;28;20135;-89
2022/01/23 09:32:47;;;;;;;2.85;1.15;;;7.40;95.00;;;;;;5024047;28;20053;-85
2022/01/23 09:35:17;;;;;;;3.67;1.55;;;7.50;95.00;;;;;;5038315;28;20127;-86
2022/01/23 09:37:45;;;;;;;2.72;0.98;;;7.50;95.00;;;;;;5021671;28;20481;-87
2022/01/23 09:40:14;;;;;;;3.28;1.70;;;7.50;94.90;;;;;;5037734;28;20041;-87
2022/01/23 09:42:51;;;;;;;2.40;1.05;;;7.60;94.90;;;;;;5005791;28;20056;-87
2022/01/23 09:45:18;;;;;;;2.85;1.08;;;7.60;94.90;;;;;;5037760;28;20037;-88
2022/01/23 09:47:45;;;;;;;2.60;0.95;;;7.60;94.90;;;;;;5037607;28;20099;-87
2022/01/23 09:50:14;;;;;;;3.13;1.20;;;7.60;94.90;;;;;;5005260;28;20049;-87
2022/01/23 09:52:42;;;;;;;3.35;1.17;;;7.60;94.90;;;;;;5037739;28;20045;-88
2022/01/23 09:55:12;;;;;;;2.60;1.20;;;7.60;94.90;;;;;;5021109;28;20045;-87
2022/01/23 09:57:51;;;;;;;3.08;1.17;;;7.70;94.90;;;;;;5037728;28;20080;-88
2022/01/23 10:00:22;;;;;;;2.45;1.00;;;7.70;94.80;;;;;;5037420;28;20069;-88
2022/01/23 10:02:50;;;;;;;3.25;1.70;;;7.70;94.80;;;;;;5037826;28;20049;-88
2022/01/23 10:05:20;;;;;;;2.70;1.15;;;7.70;94.80;;;;;;5021453;28;20065;-87
2022/01/23 10:07:49;;;;;;;3.15;1.25;;;7.80;94.80;;;;;;5037248;28;20046;-86
2022/01/23 10:10:26;;;;;;;4.90;1.45;;;7.80;94.80;;;;;;5035940;28;20045;-87
2022/01/23 10:12:56;;;;;;;3.80;1.65;;;7.80;94.70;;;;;;5021046;28;20080;-87
2022/01/23 10:15:42;;;;;;;3.65;1.60;;;7.80;94.70;;;;;;5053872;28;20055;-87
2022/01/23 10:18:09;;;;;;;4.15;2.15;;;7.80;94.70;;;;;;5037252;28;20045;-87
2022/01/23 10:20:36;;;;;;;3.45;1.38;;;7.80;94.70;;;;;;5020890;28;20049;-87
2022/01/23 10:23:04;;;;;;;3.10;1.70;;;7.80;94.70;;;;;;5020620;28;20045;-86
2022/01/23 10:25:35;;;;;;;3.60;1.58;;;7.80;94.70;;;;;;5020696;28;20144;-87
2022/01/23 10:28:10;;;;;;;3.90;1.52;;;7.90;94.70;;;;;;5037143;28;20052;-86
2022/01/23 10:30:43;;;;;;;2.75;1.25;;;7.90;94.70;;;;;;5036741;28;20057;-86
2022/01/23 10:33:15;;;;;;;2.85;1.20;;;7.90;94.70;;;;;;5053224;28;20535;-86
2022/01/23 10:36:00;;;;;;;2.90;1.10;;;7.90;94.70;;;;;;5036841;28;20080;-85
2022/01/23 10:38:41;;;;;;;3.40;1.65;;;8.00;94.70;;;;;;5035839;28;20047;-80
2022/01/23 10:41:31;;;;;;;3.85;2.15;;;8.00;94.70;;;;;;5035606;28;20051;-80
2022/01/23 10:47:31;;;;;;;4.70;2.50;;;8.00;94.60;;;;;;5051200;28;20477;-80
2022/01/23 10:50:08;;;;;;;6.80;3.25;;;8.00;94.50;;;;;;5034807;28;20045;-80
2022/01/23 10:52:51;;;;;;;7.65;3.42;;;7.90;94.50;;;;;;5051000;28;20072;-80
2022/01/23 10:55:18;;;;;;;;;;;7.90;94.50;;;;;;5051370;28;20590;-80
2022/01/23 10:57:51;;;;;;;9.20;4.80;;;7.80;94.40;;;;;;5035153;28;19974;-80
2022/01/23 11:00:37;;;;;;;;;;;;;;;;;;;;;
2022/01/23 11:03:16;;;;;;;8.40;4.47;;;7.80;94.40;;;;;;5051385;28;20052;-80
2022/01/23 11:05:48;;;;;;;8.65;4.50;;;7.80;94.40;;;;;;5035313;28;20041;-80
2022/01/23 11:08:23;;;;;;;7.25;3.90;;;7.80;94.40;;;;;;5034852;28;20079;-80
2022/01/23 11:10:58;;;;;;;7.47;4.18;;;7.80;94.40;;;;;;5035420;28;20477;-80
2022/01/23 11:19:30;;;;;;;5.70;3.08;;;7.90;94.30;;;;;;5050912;28;20045;-79
2022/01/23 11:21:59;;;;;;;7.15;3.50;;;7.90;94.40;;;;;;5034238;28;20048;-80
2022/01/23 11:24:44;;;;;;;4.53;2.20;;;7.90;94.30;;;;;;5034355;28;20041;-79
2022/01/23 11:27:13;;;;;;;5.75;2.97;;;7.90;94.30;;;;;;5019672;28;20072;-79
2022/01/23 11:30:02;;;;;;;4.78;2.22;;;7.90;94.30;;;;;;5034396;28;20517;-80
2022/01/23 11:32:35;;;;;;;4.15;1.75;;;8.00;94.30;;;;;;5034721;28;20074;-80
2022/01/23 11:35:08;;;;;;;4.35;2.20;;;8.00;94.30;;;;;;5051439;28;20045;-80
2022/01/23 11:37:37;;;;;;;4.60;2.13;;;8.00;94.30;;;;;;5034940;28;20052;-80
2022/01/23 11:40:11;;;;;;;3.30;1.65;;;8.00;94.20;;;;;;5051159;28;20037;-80
2022/01/23 11:54:01;;;;;;;3.45;1.48;;;8.00;94.10;;;;;;5052344;28;20033;-79
2022/01/23 11:56:33;;;;;;;3.17;1.20;;;7.90;94.20;;;;;;5051261;28;20049;-80
2022/01/23 11:59:12;;;;;;;2.58;0.95;;;8.00;94.20;;;;;;5035919;28;20139;-80
2022/01/23 12:01:41;;;;;;;2.88;1.23;;;8.00;94.10;;;;;;5034370;28;20045;-80
2022/01/23 12:04:33;;;;;;;3.40;1.10;;;7.90;94.10;;;;;;5002319;28;20041;-79
2022/01/23 12:07:21;;;;;;;2.45;0.82;;;7.90;94.00;;;;;;5050804;28;20049;-78
2022/01/23 12:10:20;;;;;;;2.85;1.10;;;8.00;94.00;;;;;;5008237;28;20065;-78
2022/01/23 12:12:48;;;;;;;2.05;0.70;;;7.90;93.90;;;;;;5034583;28;20072;-77
2022/01/23 12:18:23;;;;;;;0.82;0.30;;;7.90;93.80;;;;;;5049957;28;20408;-81
2022/01/23 12:20:53;;;;;;;0.40;0.20;;;7.90;93.70;;;;;;5033717;28;20045;-81
2022/01/23 12:23:20;;;;;;;0.80;0.30;;;7.90;93.60;;;;;;5033161;28;20307;-81
2022/01/23 12:25:49;;;;;;;0.60;0.20;;;7.90;93.60;;;;;;5000913;28;20137;-82
2022/01/23 12:28:28;;;;;;;0.40;0.20;;;7.90;93.60;;;;;;5034717;28;20400;-82
2022/01/23 12:30:58;;;;;;;0.70;0.20;;;7.90;93.60;;;;;;5037849;28;20072;-83
2022/01/23 12:33:35;;;;;;;0.20;0.10;;;7.90;93.50;;;;;;5057689;28;20047;-83
2022/01/23 12:36:19;;;;;;;0.25;0.10;;;8.00;93.80;;;;;;5042778;28;20437;-81
2022/01/23 12:38:57;;;;;;;0.52;0.10;;;8.00;93.60;;;;;;5057341;28;20531;-81
2022/01/23 12:41:57;;;;;;;0.40;0.10;;;8.00;93.50;;;;;;5056602;28;20076;-81
2022/01/23 12:44:24;;;;;;;0.20;0.10;;;8.00;93.40;;;;;;5040290;28;20045;-82
2022/01/23 12:46:59;;;;;;;0.47;0.17;;;8.00;93.40;;;;;;5040392;28;20508;-80
2022/01/23 12:49:30;;;;;;;0.60;0.20;;;8.00;93.30;;;;;;5057633;28;20052;-82
2022/01/23 12:51:57;;;;;;;0.30;0.10;;;8.00;93.20;;;;;;5057757;28;20516;-81
2022/01/23 12:54:28;;;;;;;0.20;0.10;;;8.00;93.20;;;;;;5040934;28;20048;-80
2022/01/23 12:56:56;;;;;;;0.30;0.10;;;8.00;93.20;;;;;;5057317;28;20067;-81
2022/01/23 12:59:32;;;;;;;0.17;0.10;;;8.00;93.20;;;;;;5024482;28;20048;-81
2022/01/23 13:02:04;;;;;;;0.30;0.10;;;8.10;93.20;;;;;;5041417;28;20098;-82
2022/01/23 13:04:36;;;;;;;0.30;0.10;;;8.10;93.20;;;;;;5040741;28;20559;-80
2022/01/23 13:07:11;;;;;;;0.20;0.10;;;8.20;93.20;;;;;;5040812;28;20044;-80
2022/01/23 13:09:46;;;;;;;0.20;0.10;;;8.20;93.20;;;;;;5040682;28;20055;-79
2022/01/23 13:12:34;;;;;;;0.13;0.13;;;8.30;93.20;;;;;;5006517;28;20068;-79
2022/01/23 13:31:16;;;;;;;0.70;0.22;;;8.30;92.90;;;;;;5041045;28;20485;-79
2022/01/23 13:33:47;;;;;;;0.30;0.20;;;8.30;92.70;;;;;;5024546;28;20139;-81
2022/01/23 13:36:14;;;;;;;0.40;0.10;;;8.30;92.70;;;;;;5040210;28;20053;-82
2022/01/23 13:38:41;;;;;;;0.68;0.20;;;8.30;92.70;;;;;;5007513;28;20045;-81
2022/01/23 13:41:22;;;;;;;0.40;0.20;;;8.30;92.70;;;;;;5007365;28;20043;-81
2022/01/23 13:52:37;;;;;;;0.63;0.15;;;8.30;92.70;;;;;;5058749;28;20040;-80
2022/01/23 13:58:38;;;;;;;0.28;0.10;;;8.30;92.70;;;;;;5042707;28;20052;-85
2022/01/23 14:04:10;;;;;;;0.50;0.10;;;8.30;92.70;;;;;;4995908;28;20150;-79
2022/01/23 14:06:37;;;;;;;0.47;0.10;;;8.30;92.80;;;;;;4979970;28;20070;-79
2022/01/23 14:09:07;;;;;;;0.00;0.00;;;8.30;92.70;;;;;;5009308;28;20451;-79
2022/01/23 14:11:34;;;;;;;0.20;0.10;;;8.30;92.70;;;;;;5039527;28;20488;-80
2022/01/23 14:14:17;;;;;;;0.30;0.10;;;8.30;92.60;;;;;;5039403;28;20131;-77
2022/01/23 14:16:46;;;;;;;0.20;0.03;;;8.40;92.60;;;;;;5039432;28;20049;-78
2022/01/23 14:19:23;;;;;;;0.17;0.10;;;8.30;92.60;;;;;;5039421;28;20094;-78
2022/01/23 14:21:57;;;;;;;0.40;0.10;;;8.30;92.60;;;;;;5056041;28;20055;-78
2022/01/23 14:24:27;;;;;;;0.20;0.10;;;8.30;92.60;;;;;;5039274;28;20455;-78
2022/01/23 14:27:08;;;;;;;0.35;0.10;;;8.30;92.60;;;;;;5038861;28;20044;-79
2022/01/23 14:29:51;;;;;;;0.45;0.10;;;8.30;92.60;;;;;;5038990;28;20056;-78
2022/01/23 14:32:28;;;;;;;0.40;0.10;;;8.30;92.60;;;;;;5039021;28;20538;-80
2022/01/23 14:35:09;;;;;;;0.30;0.10;;;8.30;92.70;;;;;;5039015;28;20067;-78
2022/01/23 14:37:36;;;;;;;0.93;0.20;;;8.30;92.60;;;;;;5055090;28;20049;-77
2022/01/23 14:40:12;;;;;;;0.38;0.10;;;8.30;92.70;;;;;;5022104;28;20048;-76
2022/01/23 14:42:39;;;;;;;0.30;0.10;;;8.20;92.60;;;;;;5055167;28;20481;-79
2022/01/23 14:45:09;;;;;;;0.40;0.10;;;8.20;92.60;;;;;;5038547;28;20454;-78
2022/01/23 14:47:38;;;;;;;0.50;0.10;;;8.20;92.60;;;;;;5055142;28;20093;-78
2022/01/23 14:50:11;;;;;;;0.43;0.10;;;8.20;92.60;;;;;;5037830;28;20075;-76
2022/01/23 14:52:40;;;;;;;0.28;0.10;;;8.20;92.60;;;;;;5054804;28;20048;-78
2022/01/23 14:55:09;;;;;;;0.30;0.10;;;8.20;92.60;;;;;;5037757;28;20056;-77
2022/01/23 14:57:37;;;;;;;0.25;0.10;;;8.20;92.60;;;;;;5054572;28;20044;-77
2022/01/23 15:00:07;;;;;;;0.35;0.10;;;8.20;92.60;;;;;;5054887;28;20040;-77
2022/01/23 15:02:34;;;;;;;0.63;0.20;;;8.10;92.60;;;;;;5054817;28;20492;-78
2022/01/23 15:05:03;;;;;;;0.90;0.20;;;8.10;92.60;;;;;;5054941;28;20070;-79
2022/01/23 15:07:39;;;;;;;0.73;0.10;;;8.10;92.60;;;;;;5038452;28;20037;-78
2022/01/23 15:10:09;;;;;;;0.63;0.20;;;8.10;92.60;;;;;;5038099;28;20052;-79
2022/01/23 15:12:37;;;;;;;0.47;0.20;;;8.10;92.60;;;;;;5038547;28;20072;-80
2022/01/23 15:15:06;;;;;;;0.50;0.20;;;8.00;92.60;;;;;;5038470;28;20052;-79
2022/01/23 15:17:33;;;;;;;0.52;0.17;;;8.00;92.60;;;;;;5038025;28;20166;-79
2022/01/23 15:20:00;;;;;;;0.32;0.10;;;8.00;92.60;;;;;;5038422;28;20063;-79
2022/01/23 15:22:28;;;;;;;0.50;0.20;;;8.00;92.60;;;;;;5037796;28;20040;-79
2022/01/23 15:24:55;;;;;;;1.13;0.30;;;8.00;92.60;;;;;;5038255;28;20037;-79
2022/01/23 15:27:22;;;;;;;0.98;0.28;;;7.90;92.60;;;;;;5037804;28;20044;-79
2022/01/23 15:29:50;;;;;;;0.80;0.40;;;7.90;92.60;;;;;;5037421;28;20056;-80
2022/01/23 15:32:17;;;;;;;0.82;0.40;;;7.90;92.60;;;;;;5037683;28;20451;-79
2022/01/23 15:34:46;;;;;;;1.67;0.75;;;7.90;92.60;;;;;;5022120;28;20045;-79
2022/01/23 15:37:14;;;;;;;1.45;0.40;;;7.90;92.70;;;;;;5021798;28;20044;-78
2022/01/23 15:39:42;;;;;;;1.52;0.35;;;7.90;92.70;;;;;;5038403;28;20427;-78
2022/01/23 15:42:09;;;;;;;1.08;0.40;;;7.80;92.70;;;;;;5054502;28;20041;-76
2022/01/23 15:44:40;;;;;;;0.95;0.40;;;7.80;92.70;;;;;;5038132;28;20052;-78
2022/01/23 15:47:09;;;;;;;1.45;0.60;;;7.80;92.70;;;;;;5038378;28;20048;-79
2022/01/23 15:49:37;;;;;;;1.10;0.30;;;7.80;92.70;;;;;;5037855;28;20063;-78
2022/01/23 15:52:05;;;;;;;1.05;0.43;;;7.80;92.70;;;;;;5037783;28;20045;-78
2022/01/23 15:54:34;;;;;;;1.35;0.38;;;7.80;92.70;;;;;;5037985;28;20048;-77
2022/01/23 15:57:02;;;;;;;1.50;0.52;;;7.70;92.70;;;;;;5037936;28;20102;-78
2022/01/23 15:59:35;;;;;;;1.42;0.60;;;7.70;92.70;;;;;;5054468;28;20505;-79
2022/01/23 16:02:07;;;;;;;1.25;0.55;;;7.70;92.70;;;;;;5038115;28;20127;-78
2022/01/23 16:04:37;;;;;;;1.25;0.60;;;7.70;92.70;;;;;;5054376;28;20041;-79
2022/01/23 16:07:11;;;;;;;1.10;0.40;;;7.70;92.70;;;;;;5054698;28;20048;-79
2022/01/23 16:09:38;;;;;;;1.73;0.50;;;7.70;92.70;;;;;;5025716;28;20062;-78
2022/01/23 16:12:06;;;;;;;1.50;0.60;;;7.70;92.70;;;;;;5041834;28;20097;-81
2022/01/23 16:14:53;;;;;;;1.02;0.73;;;7.70;92.70;;;;;;5044389;28;20052;-81
2022/01/23 16:17:20;;;;;;;1.95;0.80;;;7.70;93.00;;;;;;5025181;28;20056;-81
2022/01/23 16:19:54;;;;;;;1.50;0.50;;;7.60;92.80;;;;;;5041603;28;20044;-83
2022/01/23 16:22:27;;;;;;;1.17;0.50;;;7.60;92.80;;;;;;5059500;28;20400;-77
2022/01/23 16:24:56;;;;;;;1.65;0.50;;;7.60;92.80;;;;;;5041630;28;20095;-80
2022/01/23 16:27:23;;;;;;;1.65;0.52;;;7.60;92.80;;;;;;5058364;28;20039;-77
2022/01/23 16:30:11;;;;;;;1.80;0.88;;;7.60;92.80;;;;;;5043762;28;20054;-78
2022/01/23 16:32:38;;;;;;;1.15;0.60;;;7.50;92.80;;;;;;5024784;28;20055;-79
2022/01/23 16:35:06;;;;;;;2.00;0.63;;;7.50;92.80;;;;;;5041395;28;20101;-77
2022/01/23 16:37:33;;;;;;;2.42;0.82;;;7.50;92.80;;;;;;5040952;28;20048;-78
2022/01/23 16:40:02;;;;;;;2.13;0.50;;;7.50;92.80;;;;;;5039957;28;20064;-78